SAS1817 EDDL-EDDH
Flight info
| Callsign | SAS1817 |
|---|---|
| Flight time | 0h 36m |
| Altitude | 33000 |
| Route | MEVEL1Z MEVEL Y850 BASUM/N0442F320 Y850 PIXUR/N0441F310 Y850 MUBZI M105 RIBSO RIBSO7A |
| Aircraft | A320/M-SDE3FGHIRWY/LB1 |
Departure
| Time | 2026-05-06 18:46 |
|---|---|
| Airport | Düsseldorf Airport (EDDL) |
Arrival
| Time | 2026-05-06 19:23 |
|---|---|
| Airport | Hamburg Helmut Schmidt Airport (EDDH) |
| Time | Latitude | Longitude | Altitude | Speed | Heading |
|---|---|---|---|---|---|
| 2026-05-06 18:35 | 51.28043 | 6.76369 | 132 ft | 0 kts | 197° |
| 2026-05-06 18:40 | 51.28052 | 6.76373 | 126 ft | 2 kts | 197° |
| 2026-05-06 18:41 | 51.28067 | 6.76380 | 126 ft | 2 kts | 197° |
| 2026-05-06 18:41 | 51.28082 | 6.76388 | 125 ft | 2 kts | 197° |
| 2026-05-06 18:41 | 51.28098 | 6.76395 | 128 ft | 2 kts | 222° |
| 2026-05-06 18:41 | 51.28106 | 6.76416 | 125 ft | 2 kts | 288° |
| 2026-05-06 18:42 | 51.28106 | 6.76417 | 125 ft | 0 kts | 289° |
| 2026-05-06 18:43 | 51.28107 | 6.76411 | 125 ft | 4 kts | 292° |
| 2026-05-06 18:43 | 51.28159 | 6.76287 | 128 ft | 17 kts | 307° |
| 2026-05-06 18:43 | 51.28170 | 6.76112 | 126 ft | 18 kts | 242° |
| 2026-05-06 18:44 | 51.28080 | 6.75916 | 126 ft | 26 kts | 234° |
| 2026-05-06 18:44 | 51.27958 | 6.75660 | 127 ft | 32 kts | 233° |
| 2026-05-06 18:44 | 51.27849 | 6.75422 | 123 ft | 9 kts | 239° |
| 2026-05-06 18:44 | 51.27851 | 6.75347 | 125 ft | 6 kts | 302° |
| 2026-05-06 18:45 | 51.27880 | 6.75316 | 123 ft | 8 kts | 331° |
| 2026-05-06 18:45 | 51.27974 | 6.75273 | 122 ft | 20 kts | 10° |
| 2026-05-06 18:45 | 51.28122 | 6.75536 | 125 ft | 61 kts | 52° |
| 2026-05-06 18:45 | 51.28350 | 6.76019 | 127 ft | 103 kts | 53° |
| 2026-05-06 18:46 | 51.29105 | 6.77592 | 409 ft | 145 kts | 51° |
| 2026-05-06 18:46 | 51.29709 | 6.78861 | 1172 ft | 144 kts | 50° |
| 2026-05-06 18:46 | 51.30356 | 6.80217 | 1632 ft | 164 kts | 50° |
| 2026-05-06 18:46 | 51.31091 | 6.81764 | 1996 ft | 186 kts | 51° |
| 2026-05-06 18:47 | 51.31927 | 6.83524 | 2352 ft | 212 kts | 51° |
| 2026-05-06 18:47 | 51.32881 | 6.85540 | 2885 ft | 237 kts | 51° |
| 2026-05-06 18:47 | 51.33895 | 6.87723 | 3647 ft | 250 kts | 52° |
| 2026-05-06 18:47 | 51.35042 | 6.89829 | 4583 ft | 254 kts | 35° |
| 2026-05-06 18:48 | 51.36672 | 6.90898 | 5528 ft | 257 kts | 8° |
| 2026-05-06 18:48 | 51.38432 | 6.91242 | 6534 ft | 258 kts | 8° |
| 2026-05-06 18:48 | 51.40237 | 6.91695 | 7493 ft | 261 kts | 9° |
| 2026-05-06 18:48 | 51.42020 | 6.92192 | 8391 ft | 265 kts | 10° |
| 2026-05-06 18:49 | 51.43877 | 6.92722 | 9320 ft | 270 kts | 9° |
| 2026-05-06 18:49 | 51.45720 | 6.93243 | 10126 ft | 278 kts | 10° |
| 2026-05-06 18:49 | 51.47660 | 6.94235 | 10447 ft | 303 kts | 26° |
| 2026-05-06 18:49 | 51.49499 | 6.96147 | 10733 ft | 328 kts | 37° |
| 2026-05-06 18:50 | 51.51266 | 6.98665 | 10945 ft | 352 kts | 43° |
| 2026-05-06 18:50 | 51.53012 | 7.01464 | 11405 ft | 364 kts | 44° |
| 2026-05-06 18:50 | 51.54814 | 7.04368 | 12096 ft | 370 kts | 43° |
| 2026-05-06 18:50 | 51.56706 | 7.07282 | 12826 ft | 374 kts | 41° |
| 2026-05-06 18:51 | 51.58642 | 7.10114 | 13532 ft | 378 kts | 40° |
| 2026-05-06 18:51 | 51.60639 | 7.12917 | 14147 ft | 383 kts | 39° |
| 2026-05-06 18:51 | 51.62687 | 7.15717 | 14706 ft | 389 kts | 38° |
| 2026-05-06 18:51 | 51.64748 | 7.18503 | 15245 ft | 395 kts | 38° |
| 2026-05-06 18:52 | 51.66862 | 7.21365 | 15788 ft | 400 kts | 38° |
| 2026-05-06 18:52 | 51.68999 | 7.24276 | 16333 ft | 405 kts | 39° |
| 2026-05-06 18:52 | 51.71158 | 7.27244 | 16874 ft | 410 kts | 39° |
| 2026-05-06 18:52 | 51.73334 | 7.30266 | 17420 ft | 415 kts | 39° |
| 2026-05-06 18:53 | 51.75529 | 7.33334 | 17962 ft | 419 kts | 39° |
| 2026-05-06 18:53 | 51.77747 | 7.36435 | 18435 ft | 424 kts | 39° |
| 2026-05-06 18:53 | 51.79985 | 7.39562 | 18917 ft | 428 kts | 40° |
| 2026-05-06 18:53 | 51.82246 | 7.42714 | 19399 ft | 431 kts | 40° |
| 2026-05-06 18:54 | 51.84525 | 7.45891 | 19867 ft | 434 kts | 40° |
| 2026-05-06 18:54 | 51.86822 | 7.49097 | 20347 ft | 438 kts | 40° |
| 2026-05-06 18:54 | 51.89131 | 7.52330 | 20815 ft | 440 kts | 40° |
| 2026-05-06 18:54 | 51.91451 | 7.55584 | 21282 ft | 443 kts | 40° |
| 2026-05-06 18:55 | 51.93789 | 7.58868 | 21724 ft | 446 kts | 40° |
| 2026-05-06 18:55 | 51.96137 | 7.62165 | 22168 ft | 448 kts | 40° |
| 2026-05-06 18:55 | 51.98507 | 7.65493 | 22587 ft | 451 kts | 40° |
| 2026-05-06 18:55 | 52.00880 | 7.68837 | 23030 ft | 454 kts | 40° |
| 2026-05-06 18:56 | 52.03272 | 7.72211 | 23445 ft | 457 kts | 40° |
| 2026-05-06 18:56 | 52.04894 | 7.74500 | 23697 ft | 458 kts | 40° |
| 2026-05-06 18:56 | 52.07305 | 7.77913 | 24034 ft | 461 kts | 40° |
| 2026-05-06 18:56 | 52.09694 | 7.81309 | 24408 ft | 463 kts | 41° |
| 2026-05-06 18:57 | 52.12126 | 7.84771 | 24732 ft | 465 kts | 41° |
| 2026-05-06 18:57 | 52.14568 | 7.88244 | 25069 ft | 467 kts | 41° |
| 2026-05-06 18:57 | 52.17021 | 7.91735 | 25377 ft | 470 kts | 40° |
| 2026-05-06 18:57 | 52.19487 | 7.95243 | 25709 ft | 471 kts | 40° |
| 2026-05-06 18:58 | 52.21959 | 7.98767 | 26006 ft | 474 kts | 41° |
| 2026-05-06 18:58 | 52.24443 | 8.02318 | 26325 ft | 475 kts | 41° |
| 2026-05-06 18:58 | 52.26934 | 8.05887 | 26619 ft | 478 kts | 40° |
| 2026-05-06 18:58 | 52.29429 | 8.09474 | 26920 ft | 479 kts | 41° |
| 2026-05-06 18:59 | 52.31937 | 8.13084 | 27208 ft | 481 kts | 41° |
| 2026-05-06 18:59 | 52.34449 | 8.16706 | 27499 ft | 483 kts | 41° |
| 2026-05-06 18:59 | 52.36974 | 8.20348 | 27776 ft | 484 kts | 41° |
| 2026-05-06 18:59 | 52.39494 | 8.23988 | 28197 ft | 483 kts | 41° |
| 2026-05-06 19:00 | 52.42014 | 8.27631 | 28605 ft | 482 kts | 41° |
| 2026-05-06 19:00 | 52.44526 | 8.31262 | 29018 ft | 481 kts | 41° |
| 2026-05-06 19:00 | 52.47034 | 8.34896 | 29438 ft | 480 kts | 41° |
| 2026-05-06 19:00 | 52.49527 | 8.38524 | 29888 ft | 479 kts | 41° |
| 2026-05-06 19:01 | 52.52016 | 8.42155 | 30253 ft | 478 kts | 41° |
| 2026-05-06 19:01 | 52.54503 | 8.45780 | 30587 ft | 478 kts | 41° |
| 2026-05-06 19:01 | 52.56990 | 8.49394 | 30891 ft | 478 kts | 41° |
| 2026-05-06 19:01 | 52.59485 | 8.53011 | 31200 ft | 478 kts | 41° |
| 2026-05-06 19:02 | 52.61981 | 8.56624 | 31495 ft | 479 kts | 41° |
| 2026-05-06 19:02 | 52.64484 | 8.60254 | 31786 ft | 479 kts | 41° |
| 2026-05-06 19:02 | 52.66983 | 8.63892 | 32082 ft | 480 kts | 41° |
| 2026-05-06 19:02 | 52.69482 | 8.67543 | 32377 ft | 480 kts | 41° |
| 2026-05-06 19:03 | 52.71950 | 8.71150 | 32700 ft | 480 kts | 40° |
| 2026-05-06 19:03 | 52.74623 | 8.74435 | 32876 ft | 480 kts | 29° |
| 2026-05-06 19:03 | 52.77671 | 8.76801 | 32901 ft | 477 kts | 18° |
| 2026-05-06 19:04 | 52.84105 | 8.78737 | 32902 ft | 472 kts | 359° |
| 2026-05-06 19:04 | 52.87373 | 8.78771 | 32251 ft | 470 kts | 358° |
| 2026-05-06 19:04 | 52.90642 | 8.78770 | 31302 ft | 471 kts | 358° |
| 2026-05-06 19:04 | 52.93919 | 8.78757 | 30395 ft | 471 kts | 358° |
| 2026-05-06 19:05 | 52.97200 | 8.78937 | 29404 ft | 472 kts | 5° |
| 2026-05-06 19:05 | 53.00460 | 8.79640 | 28270 ft | 473 kts | 7° |
| 2026-05-06 19:05 | 53.03731 | 8.80381 | 27106 ft | 475 kts | 7° |
| 2026-05-06 19:05 | 53.07008 | 8.81128 | 25924 ft | 477 kts | 7° |
| 2026-05-06 19:06 | 53.10301 | 8.81879 | 24730 ft | 479 kts | 6° |
| 2026-05-06 19:06 | 53.13611 | 8.82634 | 23523 ft | 481 kts | 6° |
| 2026-05-06 19:06 | 53.16920 | 8.83393 | 22541 ft | 474 kts | 6° |
| 2026-05-06 19:06 | 53.20062 | 8.84120 | 22156 ft | 440 kts | 6° |
| 2026-05-06 19:07 | 53.22997 | 8.84810 | 21611 ft | 415 kts | 8° |
| 2026-05-06 19:07 | 53.25729 | 8.86162 | 20739 ft | 409 kts | 24° |
| 2026-05-06 19:07 | 53.28255 | 8.88304 | 20172 ft | 405 kts | 26° |
| 2026-05-06 19:07 | 53.30750 | 8.90432 | 19611 ft | 401 kts | 26° |
| 2026-05-06 19:08 | 53.33230 | 8.92541 | 19035 ft | 398 kts | 26° |
| 2026-05-06 19:08 | 53.35689 | 8.94631 | 18474 ft | 395 kts | 26° |
| 2026-05-06 19:08 | 53.38133 | 8.96708 | 17910 ft | 393 kts | 26° |
| 2026-05-06 19:08 | 53.40552 | 8.98769 | 17346 ft | 389 kts | 26° |
| 2026-05-06 19:09 | 53.42950 | 9.00822 | 16800 ft | 385 kts | 26° |
| 2026-05-06 19:09 | 53.45327 | 9.02860 | 16262 ft | 381 kts | 26° |
| 2026-05-06 19:09 | 53.47670 | 9.04874 | 15778 ft | 377 kts | 26° |
| 2026-05-06 19:09 | 53.49997 | 9.06876 | 15281 ft | 373 kts | 26° |
| 2026-05-06 19:10 | 53.52298 | 9.08856 | 14805 ft | 369 kts | 26° |
| 2026-05-06 19:10 | 53.54572 | 9.10814 | 14338 ft | 365 kts | 26° |
| 2026-05-06 19:10 | 53.56825 | 9.12758 | 13874 ft | 362 kts | 26° |
| 2026-05-06 19:10 | 53.59052 | 9.14683 | 13366 ft | 358 kts | 26° |
| 2026-05-06 19:11 | 53.61253 | 9.16591 | 12856 ft | 354 kts | 27° |
| 2026-05-06 19:11 | 53.63436 | 9.18485 | 12297 ft | 351 kts | 27° |
| 2026-05-06 19:11 | 53.65594 | 9.20359 | 11763 ft | 348 kts | 26° |
| 2026-05-06 19:11 | 53.67738 | 9.22225 | 11182 ft | 346 kts | 26° |
| 2026-05-06 19:12 | 53.69867 | 9.24078 | 10652 ft | 343 kts | 27° |
| 2026-05-06 19:12 | 53.71974 | 9.25912 | 10139 ft | 339 kts | 27° |
| 2026-05-06 19:12 | 53.73921 | 9.28077 | 9702 ft | 333 kts | 44° |
| 2026-05-06 19:12 | 53.75176 | 9.31211 | 9555 ft | 312 kts | 68° |
| 2026-05-06 19:13 | 53.75525 | 9.34662 | 9361 ft | 290 kts | 92° |
| 2026-05-06 19:13 | 53.74995 | 9.37868 | 8903 ft | 284 kts | 120° |
| 2026-05-06 19:13 | 53.73669 | 9.40218 | 8740 ft | 270 kts | 147° |
| 2026-05-06 19:13 | 53.72055 | 9.41645 | 8487 ft | 256 kts | 153° |
| 2026-05-06 19:14 | 53.70440 | 9.42883 | 8166 ft | 253 kts | 154° |
| 2026-05-06 19:14 | 53.68831 | 9.44072 | 7848 ft | 251 kts | 154° |
| 2026-05-06 19:14 | 53.67316 | 9.45471 | 7535 ft | 246 kts | 136° |
| 2026-05-06 19:14 | 53.66206 | 9.47623 | 7193 ft | 243 kts | 129° |
| 2026-05-06 19:15 | 53.64901 | 9.49441 | 6857 ft | 245 kts | 142° |
| 2026-05-06 19:15 | 53.63487 | 9.51030 | 6532 ft | 244 kts | 144° |
| 2026-05-06 19:15 | 53.62073 | 9.52581 | 6201 ft | 242 kts | 144° |
| 2026-05-06 19:15 | 53.60667 | 9.54125 | 5862 ft | 240 kts | 144° |
| 2026-05-06 19:16 | 53.59271 | 9.55655 | 5542 ft | 238 kts | 144° |
| 2026-05-06 19:16 | 53.57885 | 9.57168 | 5210 ft | 236 kts | 144° |
| 2026-05-06 19:16 | 53.56506 | 9.58656 | 4901 ft | 234 kts | 144° |
| 2026-05-06 19:16 | 53.55134 | 9.60119 | 4582 ft | 233 kts | 144° |
| 2026-05-06 19:17 | 53.53769 | 9.61560 | 4251 ft | 231 kts | 144° |
| 2026-05-06 19:17 | 53.52412 | 9.62987 | 3926 ft | 230 kts | 144° |
| 2026-05-06 19:17 | 53.51086 | 9.64458 | 3592 ft | 226 kts | 135° |
| 2026-05-06 19:17 | 53.50189 | 9.66537 | 3265 ft | 219 kts | 111° |
| 2026-05-06 19:18 | 53.49810 | 9.68967 | 3029 ft | 213 kts | 91° |
| 2026-05-06 19:18 | 53.49948 | 9.71427 | 3007 ft | 213 kts | 73° |
| 2026-05-06 19:18 | 53.50561 | 9.73671 | 3007 ft | 213 kts | 55° |
| 2026-05-06 19:18 | 53.51502 | 9.75609 | 3008 ft | 214 kts | 50° |
| 2026-05-06 19:19 | 53.52461 | 9.77515 | 2953 ft | 212 kts | 51° |
| 2026-05-06 19:19 | 53.53382 | 9.79366 | 2747 ft | 207 kts | 51° |
| 2026-05-06 19:19 | 53.54313 | 9.81241 | 2476 ft | 206 kts | 51° |
| 2026-05-06 19:19 | 53.55213 | 9.83050 | 2202 ft | 203 kts | 51° |
| 2026-05-06 19:20 | 53.56091 | 9.84812 | 1931 ft | 191 kts | 51° |
| 2026-05-06 19:20 | 53.56913 | 9.86467 | 1698 ft | 176 kts | 51° |
| 2026-05-06 19:20 | 53.57666 | 9.87982 | 1447 ft | 162 kts | 51° |
| 2026-05-06 19:20 | 53.58345 | 9.89350 | 1246 ft | 143 kts | 51° |
| 2026-05-06 19:21 | 53.58963 | 9.90595 | 1028 ft | 135 kts | 50° |
| 2026-05-06 19:21 | 53.59561 | 9.91802 | 834 ft | 133 kts | 50° |
| 2026-05-06 19:21 | 53.60145 | 9.92999 | 649 ft | 131 kts | 51° |
| 2026-05-06 19:21 | 53.60743 | 9.94186 | 472 ft | 134 kts | 49° |
| 2026-05-06 19:22 | 53.61346 | 9.95383 | 264 ft | 133 kts | 53° |
| 2026-05-06 19:22 | 53.61933 | 9.96587 | 108 ft | 132 kts | 51° |
| 2026-05-06 19:22 | 53.62509 | 9.97757 | 43 ft | 121 kts | 51° |
| 2026-05-06 19:22 | 53.62925 | 9.98595 | 45 ft | 70 kts | 50° |
| 2026-05-06 19:23 | 53.63095 | 9.98950 | 46 ft | 22 kts | 49° |
| 2026-05-06 19:23 | 53.63210 | 9.99177 | 47 ft | 33 kts | 51° |
| 2026-05-06 19:23 | 53.63292 | 9.99450 | 47 ft | 22 kts | 88° |
| 2026-05-06 19:23 | 53.63279 | 9.99636 | 48 ft | 7 kts | 99° |
| 2026-05-06 19:24 | 53.63275 | 9.99673 | 48 ft | 2 kts | 99° |
| 2026-05-06 19:24 | 53.63274 | 9.99689 | 48 ft | 1 kts | 99° |
| 2026-05-06 19:24 | 53.63273 | 9.99695 | 48 ft | 0 kts | 99° |
| 2026-05-06 19:24 | 53.63273 | 9.99696 | 48 ft | 1 kts | 99° |
| 2026-05-06 19:25 | 53.63233 | 9.99753 | 48 ft | 16 kts | 154° |
| 2026-05-06 19:25 | 53.63093 | 9.99873 | 48 ft | 29 kts | 152° |
| 2026-05-06 19:25 | 53.62916 | 10.00023 | 47 ft | 21 kts | 157° |
| 2026-05-06 19:25 | 53.62819 | 10.00108 | 48 ft | 8 kts | 111° |
| 2026-05-06 19:26 | 53.62840 | 10.00204 | 48 ft | 0 kts | 62° |